sensor_id;sensor_type;location;lat;lon;timestamp;P1;durP1;ratioP1;P2;durP2;ratioP2
47289;SDS011;33197;52.524;13.444;2023-01-23T00:00:11;25.20;;;17.30;;
47289;SDS011;33197;52.524;13.444;2023-01-23T02:41:43;27.00;;;18.23;;
47289;SDS011;33197;52.524;13.444;2023-01-23T03:25:44;28.30;;;19.13;;
47289;SDS011;33197;52.524;13.444;2023-01-23T03:28:13;26.77;;;19.33;;
47289;SDS011;33197;52.524;13.444;2023-01-23T04:29:28;27.20;;;19.02;;
47289;SDS011;33197;52.524;13.444;2023-01-23T04:31:55;33.15;;;20.05;;
47289;SDS011;33197;52.524;13.444;2023-01-23T06:13:10;31.75;;;22.45;;
47289;SDS011;33197;52.524;13.444;2023-01-23T06:37:40;28.58;;;20.05;;
47289;SDS011;33197;52.524;13.444;2023-01-23T06:40:07;29.75;;;20.98;;
47289;SDS011;33197;52.524;13.444;2023-01-23T06:51:28;31.45;;;21.08;;
47289;SDS011;33197;52.524;13.444;2023-01-23T06:58:15;30.42;;;21.15;;
47289;SDS011;33197;52.524;13.444;2023-01-23T07:00:42;29.65;;;20.75;;
47289;SDS011;33197;52.524;13.444;2023-01-23T07:03:16;29.75;;;21.13;;
47289;SDS011;33197;52.524;13.444;2023-01-23T07:05:44;28.88;;;21.05;;
47289;SDS011;33197;52.524;13.444;2023-01-23T07:08:11;34.30;;;21.65;;
47289;SDS011;33197;52.524;13.444;2023-01-23T07:10:39;28.33;;;20.38;;
47289;SDS011;33197;52.524;13.444;2023-01-23T07:13:07;30.33;;;21.25;;
47289;SDS011;33197;52.524;13.444;2023-01-23T07:15:36;30.95;;;21.60;;
47289;SDS011;33197;52.524;13.444;2023-01-23T07:18:07;33.30;;;22.15;;
47289;SDS011;33197;52.524;13.444;2023-01-23T07:20:35;32.80;;;23.08;;
47289;SDS011;33197;52.524;13.444;2023-01-23T07:23:04;35.03;;;23.77;;
47289;SDS011;33197;52.524;13.444;2023-01-23T07:25:32;32.55;;;22.05;;
47289;SDS011;33197;52.524;13.444;2023-01-23T07:27:59;35.78;;;23.20;;
47289;SDS011;33197;52.524;13.444;2023-01-23T07:30:27;32.20;;;22.90;;
47289;SDS011;33197;52.524;13.444;2023-01-23T07:32:55;34.10;;;22.08;;
47289;SDS011;33197;52.524;13.444;2023-01-23T07:35:24;34.53;;;21.90;;
47289;SDS011;33197;52.524;13.444;2023-01-23T07:37:51;31.45;;;22.27;;
47289;SDS011;33197;52.524;13.444;2023-01-23T07:40:19;35.45;;;23.27;;
47289;SDS011;33197;52.524;13.444;2023-01-23T07:42:51;36.45;;;23.90;;
47289;SDS011;33197;52.524;13.444;2023-01-23T07:45:18;33.28;;;21.83;;
47289;SDS011;33197;52.524;13.444;2023-01-23T07:47:46;33.10;;;23.10;;
47289;SDS011;33197;52.524;13.444;2023-01-23T07:50:13;34.42;;;22.38;;
47289;SDS011;33197;52.524;13.444;2023-01-23T07:52:41;33.20;;;22.90;;
47289;SDS011;33197;52.524;13.444;2023-01-23T07:55:09;38.38;;;23.50;;
47289;SDS011;33197;52.524;13.444;2023-01-23T07:57:36;35.75;;;23.10;;
47289;SDS011;33197;52.524;13.444;2023-01-23T08:00:04;33.33;;;23.02;;
47289;SDS011;33197;52.524;13.444;2023-01-23T08:02:32;33.10;;;22.80;;
47289;SDS011;33197;52.524;13.444;2023-01-23T08:04:59;36.83;;;23.35;;
47289;SDS011;33197;52.524;13.444;2023-01-23T08:07:27;32.55;;;22.65;;
47289;SDS011;33197;52.524;13.444;2023-01-23T08:09:55;36.65;;;24.55;;
47289;SDS011;33197;52.524;13.444;2023-01-23T08:12:23;38.20;;;23.63;;
47289;SDS011;33197;52.524;13.444;2023-01-23T08:14:50;30.13;;;22.50;;
47289;SDS011;33197;52.524;13.444;2023-01-23T08:17:18;34.70;;;23.52;;
47289;SDS011;33197;52.524;13.444;2023-01-23T08:19:45;34.40;;;23.38;;
47289;SDS011;33197;52.524;13.444;2023-01-23T08:22:13;34.00;;;22.65;;
47289;SDS011;33197;52.524;13.444;2023-01-23T08:24:40;35.50;;;23.15;;
47289;SDS011;33197;52.524;13.444;2023-01-23T08:27:08;31.25;;;22.35;;
47289;SDS011;33197;52.524;13.444;2023-01-23T08:29:35;33.78;;;23.10;;
47289;SDS011;33197;52.524;13.444;2023-01-23T08:32:03;36.42;;;24.00;;
47289;SDS011;33197;52.524;13.444;2023-01-23T08:34:31;32.00;;;22.15;;
47289;SDS011;33197;52.524;13.444;2023-01-23T08:36:58;33.50;;;22.88;;
47289;SDS011;33197;52.524;13.444;2023-01-23T08:39:26;33.15;;;21.88;;
47289;SDS011;33197;52.524;13.444;2023-01-23T08:41:54;32.90;;;22.50;;
47289;SDS011;33197;52.524;13.444;2023-01-23T08:44:22;35.78;;;24.20;;
47289;SDS011;33197;52.524;13.444;2023-01-23T08:46:50;33.70;;;21.33;;
47289;SDS011;33197;52.524;13.444;2023-01-23T08:49:17;31.02;;;21.73;;
47289;SDS011;33197;52.524;13.444;2023-01-23T08:51:46;36.95;;;23.05;;
47289;SDS011;33197;52.524;13.444;2023-01-23T08:54:13;32.50;;;22.13;;
47289;SDS011;33197;52.524;13.444;2023-01-23T08:56:41;32.30;;;22.77;;
47289;SDS011;33197;52.524;13.444;2023-01-23T08:59:09;32.60;;;21.92;;
47289;SDS011;33197;52.524;13.444;2023-01-23T09:05:17;31.10;;;21.02;;
47289;SDS011;33197;52.524;13.444;2023-01-23T09:07:46;33.05;;;21.83;;
47289;SDS011;33197;52.524;13.444;2023-01-23T09:10:13;35.13;;;21.27;;
47289;SDS011;33197;52.524;13.444;2023-01-23T09:12:41;31.20;;;21.73;;
47289;SDS011;33197;52.524;13.444;2023-01-23T09:15:09;33.85;;;22.15;;
47289;SDS011;33197;52.524;13.444;2023-01-23T09:17:37;32.42;;;22.23;;
47289;SDS011;33197;52.524;13.444;2023-01-23T09:20:05;30.70;;;22.48;;
47289;SDS011;33197;52.524;13.444;2023-01-23T09:22:33;33.30;;;20.80;;
47289;SDS011;33197;52.524;13.444;2023-01-23T09:25:00;31.45;;;20.95;;
47289;SDS011;33197;52.524;13.444;2023-01-23T09:27:27;32.90;;;23.00;;
47289;SDS011;33197;52.524;13.444;2023-01-23T09:29:55;30.88;;;22.65;;
47289;SDS011;33197;52.524;13.444;2023-01-23T09:32:23;31.00;;;22.42;;
47289;SDS011;33197;52.524;13.444;2023-01-23T09:34:50;34.60;;;22.23;;
47289;SDS011;33197;52.524;13.444;2023-01-23T09:37:17;31.02;;;22.13;;
47289;SDS011;33197;52.524;13.444;2023-01-23T09:39:45;32.13;;;22.27;;
47289;SDS011;33197;52.524;13.444;2023-01-23T09:42:17;34.78;;;23.80;;
47289;SDS011;33197;52.524;13.444;2023-01-23T09:44:47;34.25;;;23.25;;
47289;SDS011;33197;52.524;13.444;2023-01-23T09:50:05;37.17;;;22.65;;
47289;SDS011;33197;52.524;13.444;2023-01-23T09:52:35;32.10;;;21.77;;
47289;SDS011;33197;52.524;13.444;2023-01-23T09:55:14;33.35;;;22.90;;
47289;SDS011;33197;52.524;13.444;2023-01-23T09:57:51;29.25;;;21.38;;
47289;SDS011;33197;52.524;13.444;2023-01-23T10:00:23;33.92;;;21.95;;
47289;SDS011;33197;52.524;13.444;2023-01-23T10:02:53;31.42;;;21.83;;
47289;SDS011;33197;52.524;13.444;2023-01-23T10:05:25;33.10;;;21.42;;
47289;SDS011;33197;52.524;13.444;2023-01-23T10:08:17;30.92;;;21.25;;
47289;SDS011;33197;52.524;13.444;2023-01-23T10:13:41;32.67;;;22.17;;
47289;SDS011;33197;52.524;13.444;2023-01-23T10:21:51;27.73;;;20.40;;
47289;SDS011;33197;52.524;13.444;2023-01-23T10:29:58;30.95;;;22.05;;
47289;SDS011;33197;52.524;13.444;2023-01-23T10:32:29;32.17;;;22.98;;
47289;SDS011;33197;52.524;13.444;2023-01-23T10:35:03;29.40;;;20.05;;
47289;SDS011;33197;52.524;13.444;2023-01-23T10:40:21;31.55;;;21.65;;
47289;SDS011;33197;52.524;13.444;2023-01-23T10:43:12;34.33;;;22.35;;
47289;SDS011;33197;52.524;13.444;2023-01-23T10:45:41;33.83;;;22.52;;
47289;SDS011;33197;52.524;13.444;2023-01-23T10:51:04;32.25;;;21.83;;
47289;SDS011;33197;52.524;13.444;2023-01-23T10:54:10;27.50;;;19.30;;
47289;SDS011;33197;52.524;13.444;2023-01-23T10:57:02;30.15;;;21.67;;
47289;SDS011;33197;52.524;13.444;2023-01-23T11:00:45;30.65;;;20.98;;
47289;SDS011;33197;52.524;13.444;2023-01-23T11:02:46;30.38;;;21.30;;
47289;SDS011;33197;52.524;13.444;2023-01-23T11:08:26;30.88;;;21.58;;
47289;SDS011;33197;52.524;13.444;2023-01-23T11:13:41;33.03;;;22.20;;
47289;SDS011;33197;52.524;13.444;2023-01-23T11:16:17;28.25;;;21.33;;
47289;SDS011;33197;52.524;13.444;2023-01-23T11:19:03;31.55;;;21.83;;
47289;SDS011;33197;52.524;13.444;2023-01-23T11:21:35;29.38;;;21.58;;
47289;SDS011;33197;52.524;13.444;2023-01-23T11:32:24;28.60;;;19.67;;
47289;SDS011;33197;52.524;13.444;2023-01-23T11:34:53;32.08;;;22.65;;
47289;SDS011;33197;52.524;13.444;2023-01-23T11:37:27;26.77;;;18.63;;
47289;SDS011;33197;52.524;13.444;2023-01-23T11:40:17;29.15;;;20.67;;
47289;SDS011;33197;52.524;13.444;2023-01-23T11:42:47;29.63;;;20.98;;
47289;SDS011;33197;52.524;13.444;2023-01-23T11:50:50;27.85;;;19.10;;
47289;SDS011;33197;52.524;13.444;2023-01-23T11:53:24;29.50;;;20.75;;
47289;SDS011;33197;52.524;13.444;2023-01-23T12:23:12;22.90;;;16.05;;
47289;SDS011;33197;52.524;13.444;2023-01-23T12:25:44;25.13;;;17.15;;
47289;SDS011;33197;52.524;13.444;2023-01-23T12:31:43;25.52;;;16.60;;
47289;SDS011;33197;52.524;13.444;2023-01-23T12:40:36;25.13;;;15.18;;
47289;SDS011;33197;52.524;13.444;2023-01-23T12:45:47;20.73;;;15.20;;
47289;SDS011;33197;52.524;13.444;2023-01-23T12:48:23;21.70;;;15.20;;
47289;SDS011;33197;52.524;13.444;2023-01-23T12:50:55;22.52;;;15.20;;
47289;SDS011;33197;52.524;13.444;2023-01-23T12:53:38;27.63;;;15.20;;
47289;SDS011;33197;52.524;13.444;2023-01-23T12:56:16;21.40;;;15.07;;
47289;SDS011;33197;52.524;13.444;2023-01-23T13:09:26;23.88;;;15.93;;
47289;SDS011;33197;52.524;13.444;2023-01-23T13:12:11;19.50;;;13.73;;
47289;SDS011;33197;52.524;13.444;2023-01-23T13:14:50;23.02;;;14.98;;
47289;SDS011;33197;52.524;13.444;2023-01-23T13:17:43;23.23;;;15.13;;
47289;SDS011;33197;52.524;13.444;2023-01-23T13:26:20;20.98;;;13.57;;
47289;SDS011;33197;52.524;13.444;2023-01-23T13:28:52;21.17;;;14.13;;
47289;SDS011;33197;52.524;13.444;2023-01-23T13:36:45;20.85;;;13.63;;
47289;SDS011;33197;52.524;13.444;2023-01-23T13:41:44;19.52;;;14.38;;
47289;SDS011;33197;52.524;13.444;2023-01-23T13:44:26;21.13;;;14.15;;
47289;SDS011;33197;52.524;13.444;2023-01-23T13:50:13;22.77;;;14.50;;
47289;SDS011;33197;52.524;13.444;2023-01-23T13:53:05;21.08;;;13.90;;
47289;SDS011;33197;52.524;13.444;2023-01-23T13:56:15;17.83;;;13.50;;
47289;SDS011;33197;52.524;13.444;2023-01-23T13:59:24;22.23;;;13.20;;
47289;SDS011;33197;52.524;13.444;2023-01-23T14:08:04;21.75;;;14.05;;
47289;SDS011;33197;52.524;13.444;2023-01-23T14:10:32;18.73;;;12.27;;
47289;SDS011;33197;52.524;13.444;2023-01-23T14:13:16;19.30;;;13.70;;
47289;SDS011;33197;52.524;13.444;2023-01-23T14:15:50;21.07;;;13.37;;
47289;SDS011;33197;52.524;13.444;2023-01-23T14:18:42;19.00;;;12.35;;
47289;SDS011;33197;52.524;13.444;2023-01-23T14:21:34;18.75;;;12.75;;
47289;SDS011;33197;52.524;13.444;2023-01-23T14:24:19;19.42;;;13.02;;
47289;SDS011;33197;52.524;13.444;2023-01-23T14:26:52;21.40;;;14.35;;
47289;SDS011;33197;52.524;13.444;2023-01-23T14:29:30;17.40;;;12.75;;
47289;SDS011;33197;52.524;13.444;2023-01-23T14:31:58;17.20;;;11.77;;
47289;SDS011;33197;52.524;13.444;2023-01-23T14:34:26;18.65;;;12.98;;
47289;SDS011;33197;52.524;13.444;2023-01-23T14:36:58;19.13;;;13.18;;
47289;SDS011;33197;52.524;13.444;2023-01-23T14:39:31;17.13;;;12.35;;
47289;SDS011;33197;52.524;13.444;2023-01-23T14:50:48;18.27;;;12.93;;
47289;SDS011;33197;52.524;13.444;2023-01-23T14:57:30;14.55;;;10.68;;
47289;SDS011;33197;52.524;13.444;2023-01-23T14:59:58;18.85;;;11.82;;
47289;SDS011;33197;52.524;13.444;2023-01-23T20:33:12;18.58;;;13.25;;
47289;SDS011;33197;52.524;13.444;2023-01-23T21:24:19;19.40;;;13.48;;
47289;SDS011;33197;52.524;13.444;2023-01-23T21:52:39;20.77;;;14.15;;
47289;SDS011;33197;52.524;13.444;2023-01-23T22:17:10;20.88;;;13.35;;
47289;SDS011;33197;52.524;13.444;2023-01-23T22:23:49;19.70;;;13.60;;
47289;SDS011;33197;52.524;13.444;2023-01-23T22:56:11;21.63;;;14.93;;
